Time;durP1;ratioP1;P1;durP2;ratioP2;P2;SDS_P1;SDS_P2;PMS_P1;PMS_P2;Temp;Humidity;BMP_temperature;BMP_pressure;BME280_temperature;BME280_humidity;BME280_pressure;Samples;Min_cycle;Max_cycle;Signal;HPM_P1;HPM_P2
2023/09/08 00:01:14;;;;;;;4.35;3.35;;;14.30;1.00;;;;;;5219416;28;20077;-63
2023/09/08 00:03:48;;;;;;;4.85;3.65;;;14.30;1.00;;;;;;5215644;28;20544;-62
2023/09/08 00:06:21;;;;;;;4.13;2.78;;;14.30;1.00;;;;;;5215514;28;20029;-64
2023/09/08 00:08:55;;;;;;;3.83;3.23;;;14.30;1.00;;;;;;5199635;28;20462;-63
2023/09/08 00:11:28;;;;;;;4.37;3.50;;;14.30;1.00;;;;;;5178308;28;20553;-62
2023/09/08 00:14:04;;;;;;;4.78;3.20;;;14.20;1.00;;;;;;5221237;28;20315;-63
2023/09/08 00:16:35;;;;;;;4.18;3.28;;;14.20;1.00;;;;;;5183500;28;20032;-63
2023/09/08 00:19:06;;;;;;;5.32;3.20;;;14.20;1.00;;;;;;5222056;28;20037;-63
2023/09/08 00:21:43;;;;;;;4.00;3.20;;;14.20;1.00;;;;;;5200282;28;20028;-63
2023/09/08 00:24:14;;;;;;;4.63;3.30;;;14.20;1.00;;;;;;5199963;28;20485;-62
2023/09/08 00:26:47;;;;;;;4.75;3.45;;;14.20;1.00;;;;;;5222846;28;20032;-62
2023/09/08 00:29:19;;;;;;;3.83;3.25;;;14.20;1.00;;;;;;5182290;28;20037;-62
2023/09/08 00:31:55;;;;;;;3.78;3.35;;;14.20;1.00;;;;;;5186250;28;20033;-64
2023/09/08 00:34:26;;;;;;;4.45;3.10;;;14.10;1.00;;;;;;5218206;28;20261;-62
2023/09/08 00:36:57;;;;;;;5.85;3.60;;;14.10;1.00;;;;;;5185467;28;20045;-63
2023/09/08 00:39:33;;;;;;;4.53;3.45;;;14.10;1.00;;;;;;5222001;28;20597;-63
2023/09/08 00:42:11;;;;;;;5.72;3.47;;;14.10;1.00;;;;;;5184707;28;20039;-66
2023/09/08 00:44:45;;;;;;;5.72;3.58;;;14.00;1.00;;;;;;5200873;28;20037;-61
2023/09/08 00:47:17;;;;;;;4.95;3.40;;;13.90;1.00;;;;;;5165119;28;20052;-60
2023/09/08 00:49:51;;;;;;;5.40;4.30;;;13.90;1.00;;;;;;5171408;28;20029;-61
2023/09/08 00:52:23;;;;;;;7.93;3.53;;;13.90;1.00;;;;;;5216278;28;20036;-62
2023/09/08 00:54:54;;;;;;;6.15;3.22;;;13.90;1.00;;;;;;5209922;28;20039;-63
2023/09/08 00:57:26;;;;;;;4.90;3.78;;;13.90;1.00;;;;;;5200496;28;20044;-61
2023/09/08 00:59:58;;;;;;;6.00;3.65;;;13.80;24.00;;;;;;5222794;28;20037;-59
2023/09/08 01:02:31;;;;;;;6.90;3.90;;;13.80;1.00;;;;;;5285756;22;20055;-62
2023/09/08 01:05:03;;;;;;;5.95;3.75;;;13.80;13.80;;;;;;5249905;28;20052;-63
2023/09/08 01:07:35;;;;;;;6.35;3.88;;;13.80;58.00;;;;;;5192237;28;20036;-62
2023/09/08 01:10:08;;;;;;;5.90;3.85;;;13.80;71.30;;;;;;5261309;28;20028;-63
2023/09/08 01:12:48;;;;;;;4.85;3.70;;;13.80;99.30;;;;;;5261316;28;20032;-62
2023/09/08 01:15:21;;;;;;;6.43;4.03;;;13.80;51.20;;;;;;5261694;28;20028;-63
2023/09/08 01:17:52;;;;;;;5.47;3.83;;;13.80;93.40;;;;;;5229005;28;20036;-61
2023/09/08 01:20:35;;;;;;;8.32;3.83;;;13.80;99.90;;;;;;5213181;28;20265;-63
2023/09/08 01:23:41;;;;;;;7.43;4.40;;;13.80;99.90;;;;;;5244842;28;20308;-64
2023/09/08 01:26:18;;;;;;;7.13;3.88;;;13.70;99.90;;;;;;5252978;28;20028;-62
2023/09/08 01:28:53;;;;;;;6.25;3.97;;;13.70;99.90;;;;;;5222155;28;20036;-62
2023/09/08 01:31:27;;;;;;;6.82;3.92;;;13.70;99.90;;;;;;5231342;28;20032;-64
2023/09/08 01:34:06;;;;;;;7.78;4.40;;;13.70;99.90;;;;;;5207918;28;20048;-62
2023/09/08 01:36:39;;;;;;;5.50;4.22;;;13.60;99.90;;;;;;5234854;28;20054;-63
2023/09/08 01:39:10;;;;;;;4.25;3.33;;;13.50;99.90;;;;;;5243732;28;20047;-64
2023/09/08 01:41:42;;;;;;;5.75;4.05;;;13.50;99.90;;;;;;5245674;28;20030;-63
2023/09/08 01:44:13;;;;;;;5.78;4.00;;;13.50;99.90;;;;;;5229121;28;20040;-62
2023/09/08 01:46:44;;;;;;;6.25;4.63;;;13.40;99.90;;;;;;5259292;28;20028;-63
2023/09/08 01:49:15;;;;;;;10.05;4.88;;;13.40;99.90;;;;;;5263471;28;20039;-63
2023/09/08 01:51:46;;;;;;;6.00;4.38;;;13.40;99.90;;;;;;5242530;28;20040;-64
2023/09/08 01:54:23;;;;;;;6.15;4.22;;;13.30;99.90;;;;;;5223474;28;20568;-64
2023/09/08 01:56:54;;;;;;;5.90;3.63;;;13.30;99.90;;;;;;5239080;28;20043;-62
2023/09/08 01:59:31;;;;;;;5.00;3.75;;;13.20;99.90;;;;;;5224844;28;20044;-62
2023/09/08 02:02:04;;;;;;;5.32;4.15;;;13.30;99.90;;;;;;5251440;28;20036;-64
2023/09/08 02:04:38;;;;;;;6.20;4.53;;;13.20;99.90;;;;;;5207336;28;20037;-64
2023/09/08 02:07:10;;;;;;;5.47;3.85;;;13.20;99.90;;;;;;5214464;28;20090;-62
2023/09/08 02:09:42;;;;;;;6.68;4.88;;;13.10;99.90;;;;;;5222328;28;20055;-64
2023/09/08 02:12:18;;;;;;;4.53;3.67;;;13.20;99.90;;;;;;5225754;28;20028;-62
2023/09/08 02:14:51;;;;;;;6.93;3.92;;;13.10;99.90;;;;;;5236986;28;20039;-63
2023/09/08 02:17:25;;;;;;;5.82;3.85;;;13.20;99.90;;;;;;5234999;28;20035;-64
2023/09/08 02:19:58;;;;;;;7.13;3.90;;;13.10;99.90;;;;;;5222157;28;20048;-64
2023/09/08 02:22:34;;;;;;;4.88;3.75;;;13.10;99.90;;;;;;5230703;28;20240;-64
2023/09/08 02:25:08;;;;;;;5.60;3.90;;;13.10;99.90;;;;;;5212280;28;20043;-64
2023/09/08 02:27:42;;;;;;;5.25;4.45;;;13.00;99.90;;;;;;5205117;28;20531;-63
2023/09/08 02:31:05;;;;;;;5.55;4.07;;;13.00;99.90;;;;;;5333924;27;20713;-61
2023/09/08 02:33:37;;;;;;;4.85;3.63;;;12.90;99.90;;;;;;5299116;27;20041;-64
2023/09/08 02:36:08;;;;;;;9.63;4.82;;;12.80;99.90;;;;;;5285966;27;20034;-63
2023/09/08 02:38:39;;;;;;;5.43;4.47;;;12.80;99.90;;;;;;5302445;27;20037;-63
2023/09/08 02:41:13;;;;;;;7.05;4.07;;;12.80;99.90;;;;;;5303571;27;20019;-61
2023/09/08 02:43:44;;;;;;;5.90;4.07;;;12.90;99.90;;;;;;5285762;27;20027;-64
2023/09/08 02:46:18;;;;;;;7.05;4.88;;;12.80;99.90;;;;;;5283891;27;20035;-62
2023/09/08 02:48:49;;;;;;;6.07;4.45;;;12.80;99.90;;;;;;5303682;27;20034;-62
2023/09/08 02:51:21;;;;;;;6.10;4.65;;;12.80;99.90;;;;;;5306664;27;20019;-62
2023/09/08 02:53:57;;;;;;;6.07;4.20;;;12.80;99.90;;;;;;5285363;27;20026;-63
2023/09/08 02:56:28;;;;;;;5.85;4.68;;;12.80;99.90;;;;;;5286745;27;20035;-62
2023/09/08 02:59:04;;;;;;;5.25;4.28;;;12.70;99.90;;;;;;5321808;27;20030;-62
2023/09/08 03:01:35;;;;;;;4.75;3.58;;;12.80;99.90;;;;;;5281978;27;20039;-61
2023/09/08 03:04:10;;;;;;;5.55;4.13;;;12.70;99.90;;;;;;5282070;28;20419;-63
2023/09/08 03:06:41;;;;;;;6.93;4.10;;;12.60;99.90;;;;;;5283527;28;20031;-62
2023/09/08 03:09:12;;;;;;;6.13;4.50;;;12.60;99.90;;;;;;5283396;27;20311;-63
2023/09/08 03:11:43;;;;;;;6.85;4.72;;;12.50;99.90;;;;;;5281068;27;20039;-61
2023/09/08 03:14:14;;;;;;;9.40;4.65;;;12.60;99.90;;;;;;5292709;27;20027;-63
2023/09/08 03:16:47;;;;;;;6.32;4.85;;;12.60;99.90;;;;;;5292460;27;20033;-63
2023/09/08 03:19:21;;;;;;;10.32;5.97;;;12.70;99.90;;;;;;5272263;27;20039;-62
2023/09/08 03:21:52;;;;;;;6.32;5.32;;;12.80;99.90;;;;;;5310526;27;20031;-63
2023/09/08 03:24:28;;;;;;;8.82;5.70;;;12.80;99.90;;;;;;5280621;27;20039;-60
2023/09/08 03:27:02;;;;;;;10.30;5.38;;;12.70;99.90;;;;;;5282674;27;20023;-62
2023/09/08 03:29:35;;;;;;;7.32;5.20;;;12.50;99.90;;;;;;5283115;27;20045;-60
2023/09/08 03:32:07;;;;;;;9.82;5.95;;;12.40;99.90;;;;;;5275246;27;20026;-61
2023/09/08 03:34:39;;;;;;;7.20;5.75;;;12.40;99.90;;;;;;5316372;27;20027;-61
2023/09/08 03:37:10;;;;;;;9.65;5.85;;;12.40;99.90;;;;;;5297048;27;20060;-63
2023/09/08 03:39:44;;;;;;;9.95;5.88;;;12.50;99.90;;;;;;5281449;28;20033;-63
2023/09/08 03:42:18;;;;;;;9.73;5.77;;;12.60;99.90;;;;;;5264188;28;20034;-63
2023/09/08 03:44:51;;;;;;;10.63;6.20;;;12.70;99.90;;;;;;5246585;28;20038;-62
2023/09/08 03:47:22;;;;;;;8.68;6.15;;;12.80;99.90;;;;;;5264374;27;20024;-63
2023/09/08 03:49:56;;;;;;;8.93;5.68;;;12.70;99.90;;;;;;5268576;27;20487;-64
2023/09/08 03:52:29;;;;;;;8.30;5.50;;;12.70;99.90;;;;;;5286158;27;20361;-61
2023/09/08 03:55:04;;;;;;;10.23;5.90;;;12.60;99.90;;;;;;5292535;27;20346;-63
2023/09/08 03:57:38;;;;;;;9.50;6.30;;;12.50;99.90;;;;;;5260118;28;20037;-63
2023/09/08 04:00:30;;;;;;;9.65;7.00;;;12.50;99.90;;;;;;5277752;27;20027;-62
2023/09/08 04:03:04;;;;;;;9.15;5.85;;;12.50;99.90;;;;;;5264043;27;20026;-63
2023/09/08 04:05:37;;;;;;;7.20;5.63;;;12.60;99.90;;;;;;5249518;28;20052;-63
2023/09/08 04:08:13;;;;;;;8.75;5.65;;;12.50;99.90;;;;;;5284222;27;20043;-62
2023/09/08 04:10:44;;;;;;;8.35;5.40;;;12.40;99.90;;;;;;5289334;27;20043;-65
2023/09/08 04:13:18;;;;;;;9.63;5.07;;;12.40;99.90;;;;;;5320746;27;20028;-62
2023/09/08 04:15:49;;;;;;;9.60;5.07;;;12.30;99.90;;;;;;5290193;27;20029;-63
2023/09/08 04:18:25;;;;;;;7.80;4.30;;;12.30;99.90;;;;;;5292660;27;20031;-61
2023/09/08 04:21:04;;;;;;;6.50;4.65;;;12.30;99.90;;;;;;5328505;27;20024;-63
2023/09/08 04:23:37;;;;;;;9.95;5.13;;;12.30;99.90;;;;;;5291526;27;20246;-63
2023/09/08 04:26:11;;;;;;;8.07;5.57;;;12.30;99.90;;;;;;5326014;27;20033;-64
2023/09/08 04:28:42;;;;;;;7.05;4.88;;;12.20;99.90;;;;;;5279087;27;20042;-61
2023/09/08 04:31:17;;;;;;;8.45;5.47;;;12.20;99.90;;;;;;5268618;27;20064;-65
2023/09/08 04:33:50;;;;;;;9.60;5.82;;;12.30;99.90;;;;;;5284673;27;20042;-63
2023/09/08 04:36:21;;;;;;;8.85;5.82;;;12.30;99.90;;;;;;5265567;27;20042;-65
2023/09/08 04:38:52;;;;;;;9.80;5.70;;;12.40;99.90;;;;;;5263960;27;20539;-64
2023/09/08 04:41:24;;;;;;;8.80;5.60;;;12.50;99.90;;;;;;5284454;27;20440;-63
2023/09/08 04:43:58;;;;;;;8.70;6.10;;;12.60;99.90;;;;;;5286246;27;20035;-63
2023/09/08 04:46:29;;;;;;;8.57;5.45;;;12.70;99.90;;;;;;5278179;27;20023;-67
2023/09/08 04:49:03;;;;;;;10.27;5.85;;;12.90;99.90;;;;;;5279156;27;20255;-64
2023/09/08 04:51:39;;;;;;;7.47;5.43;;;13.00;99.90;;;;;;5269694;27;20027;-65
2023/09/08 04:54:13;;;;;;;11.13;5.05;;;13.10;99.90;;;;;;5267538;27;20027;-64
2023/09/08 04:56:48;;;;;;;6.68;4.78;;;13.30;99.90;;;;;;5301682;27;20519;-64
2023/09/08 04:59:20;;;;;;;6.28;4.88;;;13.30;99.90;;;;;;5281979;27;20035;-64
2023/09/08 05:01:51;;;;;;;6.80;4.82;;;13.40;99.90;;;;;;5260882;27;20238;-65
2023/09/08 05:04:25;;;;;;;7.28;5.68;;;13.40;99.90;;;;;;5282043;27;20023;-64
2023/09/08 05:06:56;;;;;;;10.52;5.70;;;13.70;99.90;;;;;;5284280;27;20035;-64
2023/09/08 05:09:27;;;;;;;9.20;5.72;;;14.00;99.90;;;;;;5272360;27;20027;-65
2023/09/08 05:11:59;;;;;;;10.25;5.55;;;14.20;99.90;;;;;;5288653;27;20023;-62
2023/09/08 05:14:31;;;;;;;7.57;4.88;;;14.50;99.90;;;;;;5307980;27;20026;-64
2023/09/08 05:17:04;;;;;;;8.80;5.30;;;14.80;99.90;;;;;;5282192;27;20042;-64
2023/09/08 05:19:37;;;;;;;8.33;5.17;;;15.10;99.90;;;;;;5267792;27;20569;-66
2023/09/08 05:22:08;;;;;;;10.98;5.40;;;15.40;36.20;;;;;;5285535;27;20387;-61
2023/09/08 05:24:41;;;;;;;7.93;4.70;;;15.50;1.00;;;;;;5251515;27;20033;-64
2023/09/08 05:27:13;;;;;;;9.45;5.55;;;15.80;1.00;;;;;;5298122;27;20031;-63
2023/09/08 05:29:46;;;;;;;8.80;5.32;;;15.90;1.00;;;;;;5284934;27;20042;-65
2023/09/08 05:32:17;;;;;;;7.88;4.97;;;15.90;1.00;;;;;;5260663;27;20027;-63
2023/09/08 05:34:51;;;;;;;11.77;5.32;;;16.00;1.00;;;;;;5275796;27;20039;-63
2023/09/08 05:37:23;;;;;;;9.75;5.05;;;16.10;1.00;;;;;;5248261;28;20185;-63
2023/09/08 05:39:54;;;;;;;8.70;5.10;;;16.20;1.00;;;;;;5269345;27;20323;-64
2023/09/08 05:42:25;;;;;;;7.53;4.95;;;16.40;1.00;;;;;;5304283;27;20027;-61
2023/09/08 05:44:59;;;;;;;6.22;4.95;;;16.70;1.00;;;;;;5301620;27;20034;-64
2023/09/08 05:47:30;;;;;;;9.95;5.45;;;16.80;99.90;;;;;;5259995;27;20275;-63
2023/09/08 05:50:01;;;;;;;6.85;4.63;;;17.00;1.00;;;;;;5302321;27;20039;-63
2023/09/08 05:52:38;;;;;;;7.18;4.97;;;17.40;99.90;;;;;;5267815;27;20245;-63
2023/09/08 05:55:14;;;;;;;8.43;6.28;;;17.60;99.90;;;;;;5269789;27;20414;-64
2023/09/08 05:57:50;;;;;;;13.02;5.90;;;17.90;1.00;;;;;;5294059;27;20024;-64
2023/09/08 06:00:22;;;;;;;10.48;5.18;;;18.10;1.00;;;;;;5277831;28;20030;-64
2023/09/08 06:02:54;;;;;;;6.38;4.93;;;18.20;1.00;;;;;;5251024;28;20039;-63
2023/09/08 06:05:25;;;;;;;9.45;5.55;;;18.30;1.00;;;;;;5264401;28;20039;-64
2023/09/08 06:07:57;;;;;;;8.68;5.88;;;18.40;99.90;;;;;;5247105;27;20038;-63
2023/09/08 06:10:28;;;;;;;6.85;5.15;;;18.50;99.90;;;;;;5272989;27;20061;-63
2023/09/08 06:12:59;;;;;;;8.23;5.38;;;18.60;1.00;;;;;;5279106;27;20394;-63
2023/09/08 06:15:30;;;;;;;6.70;5.32;;;18.70;1.00;;;;;;5321247;27;20218;-64
2023/09/08 06:18:06;;;;;;;9.15;6.10;;;18.80;99.90;;;;;;5306340;27;20039;-65
2023/09/08 06:20:44;;;;;;;8.27;5.00;;;19.00;99.90;;;;;;5306052;27;20027;-67
2023/09/08 06:23:20;;;;;;;7.43;5.25;;;19.30;99.90;;;;;;5325201;27;20291;-63
2023/09/08 06:25:59;;;;;;;6.50;4.50;;;19.50;1.00;;;;;;5287498;27;20036;-65
2023/09/08 06:28:31;;;;;;;6.00;4.43;;;19.70;99.90;;;;;;5271131;27;20031;-64
2023/09/08 06:31:06;;;;;;;6.65;4.43;;;19.90;1.00;;;;;;5279184;28;20027;-66
2023/09/08 06:33:40;;;;;;;10.55;4.80;;;20.10;99.90;;;;;;5266843;28;20031;-65
2023/09/08 06:36:12;;;;;;;6.45;4.90;;;20.30;99.90;;;;;;5246775;28;20035;-66
2023/09/08 06:38:43;;;;;;;6.20;4.47;;;20.50;1.00;;;;;;5270367;27;20031;-66
2023/09/08 06:41:14;;;;;;;6.10;4.18;;;20.60;1.00;;;;;;5322633;27;20045;-66
2023/09/08 06:43:45;;;;;;;6.75;4.53;;;20.80;1.00;;;;;;5288588;28;20026;-63
2023/09/08 06:46:16;;;;;;;6.13;4.22;;;20.90;1.00;;;;;;5272613;27;20027;-65
2023/09/08 06:48:48;;;;;;;6.75;4.25;;;21.10;1.00;;;;;;5312558;27;20031;-66
2023/09/08 06:51:19;;;;;;;6.13;4.20;;;21.30;1.00;;;;;;5265371;28;20440;-65
2023/09/08 06:54:02;;;;;;;6.82;4.07;;;21.50;1.00;;;;;;5264152;28;20193;-65
2023/09/08 06:56:38;;;;;;;7.78;3.70;;;21.50;1.00;;;;;;5272109;27;20023;-65
2023/09/08 06:59:09;;;;;;;6.30;4.22;;;21.60;1.00;;;;;;5285402;28;20037;-65
2023/09/08 07:01:40;;;;;;;7.47;4.50;;;21.80;1.00;;;;;;5233998;28;20288;-65
2023/09/08 07:04:14;;;;;;;7.80;3.83;;;21.80;1.00;;;;;;5273775;28;20023;-65
2023/09/08 07:06:49;;;;;;;5.17;3.80;;;21.90;1.00;;;;;;5265769;27;20031;-66
2023/09/08 07:09:25;;;;;;;6.47;4.25;;;22.00;1.00;;;;;;5303947;27;20019;-65
2023/09/08 07:11:56;;;;;;;5.68;3.97;;;22.10;1.00;;;;;;5274882;27;20039;-63
2023/09/08 07:14:28;;;;;;;6.90;4.72;;;22.20;1.00;;;;;;5303965;27;20038;-65
2023/09/08 07:17:00;;;;;;;6.32;4.60;;;22.50;1.00;;;;;;5323381;27;20022;-65
2023/09/08 07:19:34;;;;;;;6.55;3.80;;;22.50;1.00;;;;;;5310176;27;20045;-63
2023/09/08 07:22:06;;;;;;;6.10;4.10;;;22.60;1.00;;;;;;5276139;27;20058;-65
2023/09/08 07:24:40;;;;;;;6.50;4.28;;;22.60;1.00;;;;;;5275236;28;20020;-63
2023/09/08 07:27:14;;;;;;;4.50;3.55;;;22.70;1.00;;;;;;5250540;28;20041;-65
2023/09/08 07:29:49;;;;;;;7.55;3.95;;;22.70;1.00;;;;;;5250462;28;20057;-63
2023/09/08 07:32:20;;;;;;;4.28;3.40;;;22.80;1.00;;;;;;5263344;27;20027;-64
2023/09/08 07:34:57;;;;;;;8.10;3.83;;;23.00;1.00;;;;;;5234529;27;20045;-63
2023/09/08 07:37:29;;;;;;;9.30;4.00;;;23.30;1.00;;;;;;5271399;27;20335;-65
2023/09/08 07:40:00;;;;;;;6.20;4.22;;;23.30;1.00;;;;;;5270347;27;20031;-64
2023/09/08 07:42:34;;;;;;;8.02;3.67;;;23.60;1.00;;;;;;5317638;27;20031;-64
2023/09/08 07:45:06;;;;;;;5.88;4.05;;;23.20;99.90;;;;;;5325471;27;20037;-65
2023/09/08 07:47:38;;;;;;;8.15;3.85;;;23.30;1.00;;;;;;5290963;27;20031;-66
2023/09/08 07:50:23;;;;;;;4.97;4.07;;;23.60;1.00;;;;;;5309818;27;20390;-65
2023/09/08 07:52:56;;;;;;;4.88;3.22;;;23.90;1.00;;;;;;5328025;27;20160;-63
2023/09/08 07:55:28;;;;;;;5.72;4.10;;;24.00;1.00;;;;;;5233398;27;20042;-62
2023/09/08 07:58:02;;;;;;;6.07;3.90;;;24.00;1.00;;;;;;5276313;27;20046;-62
2023/09/08 08:00:36;;;;;;;5.18;3.70;;;24.00;1.00;;;;;;5253299;27;20055;-64
2023/09/08 08:03:08;;;;;;;4.78;3.63;;;23.90;1.00;;;;;;5284335;27;20299;-65
2023/09/08 08:05:39;;;;;;;6.25;4.03;;;24.10;1.00;;;;;;5262752;27;20348;-65
2023/09/08 08:08:13;;;;;;;8.32;3.95;;;23.70;1.00;;;;;;5285879;27;20031;-64
2023/09/08 08:10:49;;;;;;;6.40;4.05;;;23.60;1.00;;;;;;5305913;27;20027;-62
2023/09/08 08:13:25;;;;;;;6.93;3.60;;;23.70;1.00;;;;;;5300308;27;20038;-63
2023/09/08 08:15:57;;;;;;;7.43;4.60;;;24.10;1.00;;;;;;5302117;27;20043;-64
2023/09/08 08:18:28;;;;;;;7.90;4.00;;;23.90;1.00;;;;;;5286037;27;20038;-64
2023/09/08 08:21:03;;;;;;;9.13;3.80;;;23.80;1.00;;;;;;5303786;27;20359;-63
2023/09/08 08:23:38;;;;;;;5.88;3.80;;;24.10;1.00;;;;;;5284153;27;20128;-63
2023/09/08 08:26:09;;;;;;;5.45;3.90;;;24.50;1.00;;;;;;5286264;27;20512;-64
2023/09/08 08:28:42;;;;;;;4.13;3.63;;;24.70;99.90;;;;;;5280488;27;20263;-63
2023/09/08 08:31:14;;;;;;;4.85;3.45;;;25.10;99.90;;;;;;5269945;27;20316;-67
2023/09/08 08:33:47;;;;;;;4.97;3.55;;;25.30;99.90;;;;;;5278558;27;20035;-64
2023/09/08 08:36:18;;;;;;;5.57;3.53;;;25.70;99.90;;;;;;5303540;27;20033;-65
2023/09/08 08:38:49;;;;;;;6.55;3.10;;;25.50;1.00;;;;;;5284552;27;20038;-65
2023/09/08 08:41:23;;;;;;;5.25;3.42;;;25.30;78.30;;;;;;5300106;27;20031;-66
2023/09/08 08:43:56;;;;;;;4.90;3.45;;;25.50;99.90;;;;;;5271805;27;20039;-64
2023/09/08 08:46:35;;;;;;;4.40;3.13;;;25.80;1.00;;;;;;5265633;27;20404;-64
2023/09/08 08:49:09;;;;;;;6.22;3.50;;;26.10;99.90;;;;;;5262330;27;20023;-66
2023/09/08 08:51:44;;;;;;;4.95;3.58;;;25.80;99.90;;;;;;5265087;27;20510;-64
2023/09/08 08:54:16;;;;;;;3.72;2.50;;;25.70;99.90;;;;;;5268843;27;20041;-63
2023/09/08 08:56:48;;;;;;;5.93;3.63;;;26.00;1.00;;;;;;5285674;27;20036;-64
2023/09/08 08:59:23;;;;;;;5.00;3.05;;;26.50;1.00;;;;;;5269535;27;20015;-64
2023/09/08 09:01:57;;;;;;;2.83;2.53;;;26.50;99.90;;;;;;5260834;27;20430;-61
2023/09/08 09:04:32;;;;;;;4.38;3.10;;;27.00;1.00;;;;;;5283601;28;20024;-63
2023/09/08 09:07:06;;;;;;;5.88;2.75;;;27.30;99.90;;;;;;5276850;27;20011;-65
2023/09/08 09:09:39;;;;;;;5.43;3.30;;;27.50;99.90;;;;;;5277125;27;20062;-66
2023/09/08 09:12:10;;;;;;;8.68;2.97;;;27.30;99.90;;;;;;5269862;27;20042;-65
2023/09/08 09:14:47;;;;;;;3.55;3.10;;;27.40;99.90;;;;;;5247993;27;20034;-64
2023/09/08 09:17:21;;;;;;;5.63;3.10;;;27.30;99.90;;;;;;5280478;28;20031;-62
2023/09/08 09:20:17;;;;;;;3.85;3.00;;;27.80;99.90;;;;;;5265479;28;20023;-65
2023/09/08 09:22:49;;;;;;;4.32;2.90;;;28.00;48.90;;;;;;5249159;28;20272;-64
2023/09/08 09:25:25;;;;;;;4.53;2.72;;;28.20;1.00;;;;;;5266111;28;20394;-63
2023/09/08 09:27:58;;;;;;;7.65;2.78;;;28.40;1.00;;;;;;5269602;27;20023;-62
2023/09/08 09:30:51;;;;;;;4.15;2.70;;;28.40;1.00;;;;;;5299462;27;20057;-62
2023/09/08 09:33:23;;;;;;;3.38;2.53;;;28.20;1.00;;;;;;5281099;28;20032;-66
2023/09/08 09:35:59;;;;;;;4.35;2.65;;;28.30;1.00;;;;;;5274315;27;20031;-62
2023/09/08 09:38:33;;;;;;;3.65;2.40;;;28.30;1.00;;;;;;5267906;27;20033;-63
2023/09/08 09:41:05;;;;;;;3.38;2.72;;;27.90;1.00;;;;;;5263813;28;20028;-63
2023/09/08 09:43:40;;;;;;;4.60;2.72;;;28.00;1.00;;;;;;5248067;28;20034;-62
2023/09/08 09:46:12;;;;;;;4.10;2.78;;;28.50;1.00;;;;;;5261951;28;20035;-61
2023/09/08 09:48:49;;;;;;;2.65;2.40;;;28.70;1.00;;;;;;5286028;27;20019;-62
2023/09/08 09:51:21;;;;;;;5.35;2.60;;;29.30;1.00;;;;;;5276198;27;20055;-66
2023/09/08 09:53:54;;;;;;;4.88;2.70;;;29.10;99.90;;;;;;5245906;28;20518;-63
2023/09/08 09:56:26;;;;;;;3.67;2.40;;;29.00;99.90;;;;;;5242033;27;20039;-62
2023/09/08 09:59:02;;;;;;;3.83;3.20;;;29.40;99.90;;;;;;5289117;27;20025;-62
2023/09/08 10:01:33;;;;;;;3.13;2.47;;;29.50;99.90;;;;;;5245678;28;20599;-63
2023/09/08 10:04:05;;;;;;;3.83;2.60;;;29.10;99.90;;;;;;5248482;28;20034;-65
2023/09/08 10:06:40;;;;;;;3.53;2.35;;;29.20;1.00;;;;;;5241329;28;20062;-63
2023/09/08 10:09:16;;;;;;;4.03;2.35;;;29.40;1.00;;;;;;5225093;28;20058;-65
2023/09/08 10:11:54;;;;;;;4.53;2.40;;;29.90;91.50;;;;;;5224419;28;20238;-64
2023/09/08 10:14:28;;;;;;;4.45;2.38;;;30.20;1.00;;;;;;5261796;28;20044;-62
2023/09/08 10:17:06;;;;;;;2.20;1.95;;;30.50;1.00;;;;;;5261997;28;20367;-63
2023/09/08 10:19:41;;;;;;;3.72;2.47;;;30.90;1.00;;;;;;5271819;28;20049;-62
2023/09/08 10:22:22;;;;;;;7.25;3.50;;;30.60;9.60;;;;;;5232999;28;20047;-61
2023/09/08 10:24:57;;;;;;;2.75;2.30;;;30.70;1.00;;;;;;5217242;28;20302;-62
2023/09/08 10:27:32;;;;;;;4.18;2.70;;;30.70;1.00;;;;;;5228798;28;20209;-61
2023/09/08 10:30:06;;;;;;;10.07;3.13;;;30.90;1.00;;;;;;5259203;28;20058;-64
2023/09/08 10:32:38;;;;;;;2.78;2.30;;;31.80;99.90;;;;;;5227736;28;20062;-65
2023/09/08 10:35:10;;;;;;;3.65;2.28;;;31.50;1.00;;;;;;5254523;28;20301;-64
2023/09/08 10:37:41;;;;;;;3.78;2.40;;;32.20;1.00;;;;;;5243519;28;20032;-61
2023/09/08 10:40:24;;;;;;;3.13;2.63;;;31.90;1.00;;;;;;5264917;28;20085;-60
2023/09/08 10:43:08;;;;;;;3.42;2.33;;;32.60;1.00;;;;;;5241980;28;20128;-65
2023/09/08 10:45:42;;;;;;;;;;;32.40;1.00;;;;;;5259546;28;20034;-62
2023/09/08 10:48:15;;;;;;;3.40;2.80;;;32.80;1.00;;;;;;5243938;28;20103;-63
2023/09/08 10:50:46;;;;;;;2.65;2.40;;;32.90;1.00;;;;;;5259877;28;20351;-65
2023/09/08 10:53:18;;;;;;;5.07;2.33;;;32.90;1.00;;;;;;5260243;28;20040;-65
2023/09/08 10:55:53;;;;;;;2.85;1.95;;;34.10;1.00;;;;;;5228152;28;20569;-63
2023/09/08 10:58:33;;;;;;;4.57;2.50;;;33.40;99.90;;;;;;5269963;28;20023;-64
2023/09/08 11:01:05;;;;;;;5.28;3.33;;;33.60;99.90;;;;;;5278084;28;20051;-63
2023/09/08 11:03:39;;;;;;;3.35;2.33;;;33.70;99.90;;;;;;5249491;28;20028;-62
2023/09/08 11:06:14;;;;;;;2.60;2.40;;;33.60;99.90;;;;;;5265211;28;20053;-64
2023/09/08 11:08:55;;;;;;;3.78;2.58;;;32.60;99.90;;;;;;5244124;28;20044;-63
2023/09/08 11:11:29;;;;;;;3.55;2.58;;;33.10;99.90;;;;;;5260946;28;20348;-63
2023/09/08 11:14:04;;;;;;;4.28;2.40;;;33.30;99.90;;;;;;5267891;28;20023;-63
2023/09/08 11:16:38;;;;;;;2.92;2.38;;;33.70;99.90;;;;;;5264483;28;20032;-66
2023/09/08 11:19:12;;;;;;;4.93;2.80;;;34.60;99.90;;;;;;5266040;28;20042;-64
2023/09/08 11:21:43;;;;;;;;;;;33.80;99.90;;;;;;5248712;28;20036;-66
2023/09/08 11:24:18;;;;;;;4.03;2.40;;;34.50;99.90;;;;;;5264930;28;19908;-63
2023/09/08 11:26:51;;;;;;;2.58;2.30;;;35.60;99.90;;;;;;5249026;28;20043;-63
2023/09/08 11:29:23;;;;;;;3.20;2.67;;;35.90;99.90;;;;;;5277282;28;20031;-65
2023/09/08 11:31:54;;;;;;;2.78;2.30;;;36.00;99.90;;;;;;5245601;28;20043;-65
2023/09/08 11:34:25;;;;;;;2.75;2.50;;;34.60;99.90;;;;;;5247302;28;20044;-62
2023/09/08 11:36:57;;;;;;;5.50;2.78;;;34.00;99.90;;;;;;5260495;28;20034;-64
2023/09/08 11:39:28;;;;;;;3.75;2.42;;;34.80;99.90;;;;;;5260860;28;20043;-63
2023/09/08 11:42:01;;;;;;;2.88;2.30;;;35.10;99.90;;;;;;5248871;28;20036;-65
2023/09/08 11:44:37;;;;;;;3.67;2.28;;;35.10;99.90;;;;;;5261987;28;20032;-64
2023/09/08 11:47:10;;;;;;;2.90;2.60;;;34.00;99.90;;;;;;5230208;28;20043;-61
2023/09/08 11:49:41;;;;;;;4.35;3.47;;;34.50;99.90;;;;;;5245171;28;20033;-63
2023/09/08 11:52:15;;;;;;;3.63;2.55;;;35.10;99.90;;;;;;5283199;28;20031;-66
2023/09/08 11:54:49;;;;;;;4.15;2.53;;;35.40;99.90;;;;;;5250906;28;20043;-64
2023/09/08 11:57:20;;;;;;;;;;;35.70;99.90;;;;;;5228299;28;20365;-65
2023/09/08 11:59:51;;;;;;;6.00;2.50;;;35.60;99.90;;;;;;5258462;28;20187;-66
2023/09/08 12:02:23;;;;;;;2.38;2.15;;;35.70;99.90;;;;;;5225518;28;20039;-64
2023/09/08 12:04:54;;;;;;;2.80;2.50;;;35.50;99.90;;;;;;5257927;28;20027;-66
2023/09/08 12:07:25;;;;;;;3.50;2.60;;;35.90;99.90;;;;;;5261259;28;20036;-62
2023/09/08 12:09:58;;;;;;;4.90;2.85;;;35.30;99.90;;;;;;5245602;28;20040;-64
2023/09/08 12:12:30;;;;;;;3.67;2.22;;;35.70;99.90;;;;;;5269960;28;20031;-65
2023/09/08 12:15:01;;;;;;;3.13;2.38;;;36.30;99.90;;;;;;5283892;28;20288;-62
2023/09/08 12:17:48;;;;;;;3.13;2.33;;;36.50;99.90;;;;;;5281693;28;20224;-64
2023/09/08 12:20:20;;;;;;;3.47;2.42;;;36.70;99.90;;;;;;5267726;28;20037;-64
2023/09/08 12:22:53;;;;;;;2.97;2.47;;;37.10;99.90;;;;;;5254271;28;20328;-60
2023/09/08 12:25:28;;;;;;;3.80;2.50;;;36.00;99.90;;;;;;5258173;28;20035;-62
2023/09/08 12:27:59;;;;;;;4.20;2.92;;;35.60;99.90;;;;;;5264201;28;20033;-63
2023/09/08 12:30:32;;;;;;;8.65;2.70;;;35.90;99.90;;;;;;5264459;28;20046;-63
2023/09/08 12:33:08;;;;;;;2.88;2.30;;;36.30;99.90;;;;;;5243367;28;20268;-65
2023/09/08 12:35:42;;;;;;;2.97;2.50;;;36.30;99.90;;;;;;5244463;28;20028;-65
2023/09/08 12:38:14;;;;;;;;;;;35.30;99.90;;;;;;5228089;28;20036;-62
2023/09/08 12:40:49;;;;;;;4.15;2.55;;;35.30;99.90;;;;;;5265268;27;19930;-60
2023/09/08 12:43:21;;;;;;;3.28;2.65;;;34.80;94.30;;;;;;5257133;28;20024;-64
2023/09/08 12:45:54;;;;;;;3.20;2.35;;;35.40;93.60;;;;;;5255150;28;20056;-62
2023/09/08 12:48:25;;;;;;;3.45;3.10;;;36.60;99.90;;;;;;5243851;28;20040;-64
2023/09/08 12:50:56;;;;;;;5.85;2.67;;;36.10;89.50;;;;;;5272719;28;20210;-63
2023/09/08 12:53:30;;;;;;;3.60;2.72;;;35.30;41.70;;;;;;5256973;28;20093;-63
2023/09/08 12:56:01;;;;;;;;;;;35.60;89.60;;;;;;5237495;28;20038;-62
2023/09/08 12:58:33;;;;;;;3.05;2.47;;;35.50;16.40;;;;;;5262884;28;20097;-65
2023/09/08 13:01:06;;;;;;;3.03;2.00;;;35.50;99.90;;;;;;5244243;28;20059;-62
2023/09/08 13:03:38;;;;;;;3.60;2.57;;;35.50;58.50;;;;;;5240562;28;20030;-61
2023/09/08 13:06:09;;;;;;;3.33;2.83;;;35.70;92.90;;;;;;5265385;28;20032;-64
2023/09/08 13:08:41;;;;;;;3.35;2.72;;;36.10;70.10;;;;;;5252998;28;20032;-60
2023/09/08 13:11:12;;;;;;;6.22;2.53;;;35.60;40.90;;;;;;5249185;28;20211;-61
2023/09/08 13:13:45;;;;;;;5.95;3.00;;;35.80;30.30;;;;;;5261613;28;20046;-62
2023/09/08 13:16:17;;;;;;;2.72;2.33;;;35.90;60.60;;;;;;5232828;28;20038;-61
2023/09/08 13:18:49;;;;;;;2.88;2.47;;;36.20;88.30;;;;;;5262668;28;20032;-61
2023/09/08 13:21:23;;;;;;;2.58;2.30;;;36.40;78.30;;;;;;5240722;28;20502;-64
2023/09/08 13:23:55;;;;;;;2.80;2.53;;;36.00;82.70;;;;;;5237822;28;20031;-60